sensor_id;sensor_type;location;lat;lon;timestamp;temperature;humidity
27226;DHT22;14732;51.074;3.788;2023-05-10T00:00:53;15.30;99.90
27226;DHT22;14732;51.074;3.788;2023-05-10T00:03:19;15.30;99.90
27226;DHT22;14732;51.074;3.788;2023-05-10T00:05:44;15.40;99.90
27226;DHT22;14732;51.074;3.788;2023-05-10T00:08:10;15.30;99.90
27226;DHT22;14732;51.074;3.788;2023-05-10T00:10:36;15.30;99.90
27226;DHT22;14732;51.074;3.788;2023-05-10T00:13:03;15.30;99.90
27226;DHT22;14732;51.074;3.788;2023-05-10T00:15:28;15.20;99.90
27226;DHT22;14732;51.074;3.788;2023-05-10T00:17:56;15.30;99.90
27226;DHT22;14732;51.074;3.788;2023-05-10T00:20:22;15.40;99.90
27226;DHT22;14732;51.074;3.788;2023-05-10T00:22:48;15.30;99.90
27226;DHT22;14732;51.074;3.788;2023-05-10T00:25:13;15.20;99.90
27226;DHT22;14732;51.074;3.788;2023-05-10T00:27:39;15.30;99.90
27226;DHT22;14732;51.074;3.788;2023-05-10T00:30:05;15.40;99.90
27226;DHT22;14732;51.074;3.788;2023-05-10T00:32:31;15.40;99.90
27226;DHT22;14732;51.074;3.788;2023-05-10T00:34:57;15.50;99.90
27226;DHT22;14732;51.074;3.788;2023-05-10T00:37:23;15.50;99.90
27226;DHT22;14732;51.074;3.788;2023-05-10T00:39:48;15.40;99.90
27226;DHT22;14732;51.074;3.788;2023-05-10T00:42:14;15.50;99.90
27226;DHT22;14732;51.074;3.788;2023-05-10T00:44:40;15.40;99.90
27226;DHT22;14732;51.074;3.788;2023-05-10T00:47:06;15.50;99.90
27226;DHT22;14732;51.074;3.788;2023-05-10T00:49:32;15.50;99.90
27226;DHT22;14732;51.074;3.788;2023-05-10T00:51:58;15.50;99.90
27226;DHT22;14732;51.074;3.788;2023-05-10T00:54:24;15.40;99.90
27226;DHT22;14732;51.074;3.788;2023-05-10T00:56:50;15.40;99.90
27226;DHT22;14732;51.074;3.788;2023-05-10T00:59:16;15.30;99.90
27226;DHT22;14732;51.074;3.788;2023-05-10T01:01:44;15.30;99.90
27226;DHT22;14732;51.074;3.788;2023-05-10T01:04:12;15.20;99.90
27226;DHT22;14732;51.074;3.788;2023-05-10T01:06:39;15.10;99.90
27226;DHT22;14732;51.074;3.788;2023-05-10T01:09:05;15.00;99.90
27226;DHT22;14732;51.074;3.788;2023-05-10T01:11:36;15.20;99.90
27226;DHT22;14732;51.074;3.788;2023-05-10T01:14:02;15.10;99.90
27226;DHT22;14732;51.074;3.788;2023-05-10T01:16:31;15.00;99.90
27226;DHT22;14732;51.074;3.788;2023-05-10T01:18:58;14.80;99.90
27226;DHT22;14732;51.074;3.788;2023-05-10T01:21:38;14.90;99.90
27226;DHT22;14732;51.074;3.788;2023-05-10T01:27:09;15.00;99.90
27226;DHT22;14732;51.074;3.788;2023-05-10T01:35:38;14.90;99.90
27226;DHT22;14732;51.074;3.788;2023-05-10T01:40:48;14.80;99.90
27226;DHT22;14732;51.074;3.788;2023-05-10T01:43:26;14.90;99.90
27226;DHT22;14732;51.074;3.788;2023-05-10T01:46:05;15.00;99.90
27226;DHT22;14732;51.074;3.788;2023-05-10T01:48:42;14.80;99.90
27226;DHT22;14732;51.074;3.788;2023-05-10T01:51:14;14.80;99.90
27226;DHT22;14732;51.074;3.788;2023-05-10T01:53:42;14.80;99.90
27226;DHT22;14732;51.074;3.788;2023-05-10T01:56:09;14.80;99.90
27226;DHT22;14732;51.074;3.788;2023-05-10T01:58:36;14.80;99.90
27226;DHT22;14732;51.074;3.788;2023-05-10T02:01:06;14.60;99.90
27226;DHT22;14732;51.074;3.788;2023-05-10T02:03:35;14.40;99.90
27226;DHT22;14732;51.074;3.788;2023-05-10T02:06:02;14.30;99.90
27226;DHT22;14732;51.074;3.788;2023-05-10T02:08:29;14.40;99.90
27226;DHT22;14732;51.074;3.788;2023-05-10T02:10:56;14.60;99.90
27226;DHT22;14732;51.074;3.788;2023-05-10T02:13:24;14.60;99.90
27226;DHT22;14732;51.074;3.788;2023-05-10T02:15:51;14.70;99.90
27226;DHT22;14732;51.074;3.788;2023-05-10T02:18:17;14.60;99.90
27226;DHT22;14732;51.074;3.788;2023-05-10T02:20:45;14.70;99.90
27226;DHT22;14732;51.074;3.788;2023-05-10T02:23:13;14.60;99.90
27226;DHT22;14732;51.074;3.788;2023-05-10T02:25:39;14.40;99.90
27226;DHT22;14732;51.074;3.788;2023-05-10T02:28:06;14.50;99.90
27226;DHT22;14732;51.074;3.788;2023-05-10T02:30:33;14.40;99.90
27226;DHT22;14732;51.074;3.788;2023-05-10T02:33:00;14.50;99.90
27226;DHT22;14732;51.074;3.788;2023-05-10T02:35:27;14.60;99.90
27226;DHT22;14732;51.074;3.788;2023-05-10T02:37:54;14.50;99.90
27226;DHT22;14732;51.074;3.788;2023-05-10T02:40:21;14.30;99.90
27226;DHT22;14732;51.074;3.788;2023-05-10T02:42:48;14.20;99.90
27226;DHT22;14732;51.074;3.788;2023-05-10T02:45:20;14.10;99.90
27226;DHT22;14732;51.074;3.788;2023-05-10T02:47:48;14.00;99.90
27226;DHT22;14732;51.074;3.788;2023-05-10T02:50:13;14.00;99.90
27226;DHT22;14732;51.074;3.788;2023-05-10T02:52:44;14.20;99.90
27226;DHT22;14732;51.074;3.788;2023-05-10T02:55:14;14.40;99.90
27226;DHT22;14732;51.074;3.788;2023-05-10T02:57:51;14.50;99.90
27226;DHT22;14732;51.074;3.788;2023-05-10T03:00:17;14.50;99.90
27226;DHT22;14732;51.074;3.788;2023-05-10T03:02:42;14.50;99.90
27226;DHT22;14732;51.074;3.788;2023-05-10T03:05:08;14.40;99.90
27226;DHT22;14732;51.074;3.788;2023-05-10T03:07:34;14.20;99.90
27226;DHT22;14732;51.074;3.788;2023-05-10T03:10:00;14.10;99.90
27226;DHT22;14732;51.074;3.788;2023-05-10T03:13:07;14.00;99.90
27226;DHT22;14732;51.074;3.788;2023-05-10T03:15:47;13.90;99.90
27226;DHT22;14732;51.074;3.788;2023-05-10T03:18:22;14.00;99.90
27226;DHT22;14732;51.074;3.788;2023-05-10T03:20:50;14.10;99.90
27226;DHT22;14732;51.074;3.788;2023-05-10T03:25:47;14.20;99.90
27226;DHT22;14732;51.074;3.788;2023-05-10T03:28:14;14.20;99.90
27226;DHT22;14732;51.074;3.788;2023-05-10T03:30:41;14.00;99.90
27226;DHT22;14732;51.074;3.788;2023-05-10T03:33:08;13.90;99.90
27226;DHT22;14732;51.074;3.788;2023-05-10T03:35:34;13.80;99.90
27226;DHT22;14732;51.074;3.788;2023-05-10T03:38:00;13.90;99.90
27226;DHT22;14732;51.074;3.788;2023-05-10T03:40:26;14.00;99.90
27226;DHT22;14732;51.074;3.788;2023-05-10T03:42:55;14.00;99.90
27226;DHT22;14732;51.074;3.788;2023-05-10T03:45:20;14.10;99.90
27226;DHT22;14732;51.074;3.788;2023-05-10T03:47:46;14.10;99.90
27226;DHT22;14732;51.074;3.788;2023-05-10T03:50:12;14.00;99.90
27226;DHT22;14732;51.074;3.788;2023-05-10T03:52:37;14.10;99.90
27226;DHT22;14732;51.074;3.788;2023-05-10T03:55:05;14.10;99.90
27226;DHT22;14732;51.074;3.788;2023-05-10T03:57:31;14.10;99.90
27226;DHT22;14732;51.074;3.788;2023-05-10T03:59:57;14.10;99.90
27226;DHT22;14732;51.074;3.788;2023-05-10T04:02:23;14.30;99.90
27226;DHT22;14732;51.074;3.788;2023-05-10T04:04:49;14.20;99.90
27226;DHT22;14732;51.074;3.788;2023-05-10T04:07:14;14.40;99.90
27226;DHT22;14732;51.074;3.788;2023-05-10T04:09:40;14.20;99.90
27226;DHT22;14732;51.074;3.788;2023-05-10T04:12:06;14.20;99.90
27226;DHT22;14732;51.074;3.788;2023-05-10T04:14:32;14.10;99.90
27226;DHT22;14732;51.074;3.788;2023-05-10T04:16:57;14.10;99.90
27226;DHT22;14732;51.074;3.788;2023-05-10T04:19:23;14.20;99.90
27226;DHT22;14732;51.074;3.788;2023-05-10T04:21:49;14.40;99.90
27226;DHT22;14732;51.074;3.788;2023-05-10T04:24:14;14.50;99.90
27226;DHT22;14732;51.074;3.788;2023-05-10T04:26:40;14.70;99.90
27226;DHT22;14732;51.074;3.788;2023-05-10T04:29:06;14.70;99.90
27226;DHT22;14732;51.074;3.788;2023-05-10T04:31:32;14.70;99.90
27226;DHT22;14732;51.074;3.788;2023-05-10T04:33:57;14.70;99.90
27226;DHT22;14732;51.074;3.788;2023-05-10T04:36:23;14.70;99.90
27226;DHT22;14732;51.074;3.788;2023-05-10T04:38:49;14.70;99.90
27226;DHT22;14732;51.074;3.788;2023-05-10T04:41:14;14.80;99.90
27226;DHT22;14732;51.074;3.788;2023-05-10T04:43:40;14.80;99.90
27226;DHT22;14732;51.074;3.788;2023-05-10T04:46:06;14.80;99.90
27226;DHT22;14732;51.074;3.788;2023-05-10T04:48:35;14.80;99.90
27226;DHT22;14732;51.074;3.788;2023-05-10T04:51:00;14.90;99.90
27226;DHT22;14732;51.074;3.788;2023-05-10T04:53:26;14.90;99.90
27226;DHT22;14732;51.074;3.788;2023-05-10T04:55:52;14.90;99.90
27226;DHT22;14732;51.074;3.788;2023-05-10T04:58:18;14.80;99.90
27226;DHT22;14732;51.074;3.788;2023-05-10T05:00:43;14.70;99.90
27226;DHT22;14732;51.074;3.788;2023-05-10T05:03:09;14.70;99.90
27226;DHT22;14732;51.074;3.788;2023-05-10T05:05:35;14.80;99.90
27226;DHT22;14732;51.074;3.788;2023-05-10T05:08:01;15.00;99.90
27226;DHT22;14732;51.074;3.788;2023-05-10T05:10:26;14.90;99.90
27226;DHT22;14732;51.074;3.788;2023-05-10T05:12:52;14.90;99.90
27226;DHT22;14732;51.074;3.788;2023-05-10T05:15:18;14.80;99.90
27226;DHT22;14732;51.074;3.788;2023-05-10T05:17:43;14.90;99.90
27226;DHT22;14732;51.074;3.788;2023-05-10T05:20:09;15.00;99.90
27226;DHT22;14732;51.074;3.788;2023-05-10T05:22:38;15.10;99.90
27226;DHT22;14732;51.074;3.788;2023-05-10T05:25:04;15.20;99.90
27226;DHT22;14732;51.074;3.788;2023-05-10T05:27:31;15.20;99.90
27226;DHT22;14732;51.074;3.788;2023-05-10T05:29:57;15.20;99.90
27226;DHT22;14732;51.074;3.788;2023-05-10T05:32:24;15.20;99.90
27226;DHT22;14732;51.074;3.788;2023-05-10T05:34:50;15.20;99.90
27226;DHT22;14732;51.074;3.788;2023-05-10T05:37:20;15.20;99.90
27226;DHT22;14732;51.074;3.788;2023-05-10T05:39:47;14.90;99.90
27226;DHT22;14732;51.074;3.788;2023-05-10T05:42:13;15.00;99.90
27226;DHT22;14732;51.074;3.788;2023-05-10T05:44:39;15.10;99.90
27226;DHT22;14732;51.074;3.788;2023-05-10T05:47:05;15.30;99.90
27226;DHT22;14732;51.074;3.788;2023-05-10T05:49:31;15.40;99.90
27226;DHT22;14732;51.074;3.788;2023-05-10T05:52:03;15.60;99.90
27226;DHT22;14732;51.074;3.788;2023-05-10T05:54:30;15.80;99.90
27226;DHT22;14732;51.074;3.788;2023-05-10T05:56:59;15.80;99.90
27226;DHT22;14732;51.074;3.788;2023-05-10T05:59:25;15.80;99.90
27226;DHT22;14732;51.074;3.788;2023-05-10T06:01:51;16.00;99.90
27226;DHT22;14732;51.074;3.788;2023-05-10T06:04:17;15.90;99.90
27226;DHT22;14732;51.074;3.788;2023-05-10T06:06:42;15.90;99.90
27226;DHT22;14732;51.074;3.788;2023-05-10T06:09:09;15.90;99.90
27226;DHT22;14732;51.074;3.788;2023-05-10T06:11:35;15.90;99.90
27226;DHT22;14732;51.074;3.788;2023-05-10T06:14:01;16.10;99.90
27226;DHT22;14732;51.074;3.788;2023-05-10T06:16:27;16.30;99.90
27226;DHT22;14732;51.074;3.788;2023-05-10T06:18:53;16.30;99.90
27226;DHT22;14732;51.074;3.788;2023-05-10T06:21:19;16.20;99.90
27226;DHT22;14732;51.074;3.788;2023-05-10T06:23:44;16.10;99.90
27226;DHT22;14732;51.074;3.788;2023-05-10T06:26:10;16.10;99.90
27226;DHT22;14732;51.074;3.788;2023-05-10T06:28:36;16.20;99.90
27226;DHT22;14732;51.074;3.788;2023-05-10T06:31:04;16.30;99.90
27226;DHT22;14732;51.074;3.788;2023-05-10T06:33:30;16.20;99.90
27226;DHT22;14732;51.074;3.788;2023-05-10T06:35:56;16.10;99.90
27226;DHT22;14732;51.074;3.788;2023-05-10T06:38:22;16.00;99.90
27226;DHT22;14732;51.074;3.788;2023-05-10T06:40:48;16.10;99.90
27226;DHT22;14732;51.074;3.788;2023-05-10T06:43:14;16.10;99.90
27226;DHT22;14732;51.074;3.788;2023-05-10T06:45:40;16.20;99.90
27226;DHT22;14732;51.074;3.788;2023-05-10T06:48:06;16.30;99.90
27226;DHT22;14732;51.074;3.788;2023-05-10T06:50:32;16.20;99.90
27226;DHT22;14732;51.074;3.788;2023-05-10T06:52:58;16.20;99.90
27226;DHT22;14732;51.074;3.788;2023-05-10T06:55:24;16.30;99.90
27226;DHT22;14732;51.074;3.788;2023-05-10T06:57:50;16.40;99.90
27226;DHT22;14732;51.074;3.788;2023-05-10T07:00:17;16.40;99.90
27226;DHT22;14732;51.074;3.788;2023-05-10T07:02:42;16.40;99.90
27226;DHT22;14732;51.074;3.788;2023-05-10T07:05:09;16.50;99.90
27226;DHT22;14732;51.074;3.788;2023-05-10T07:07:34;16.50;99.90
27226;DHT22;14732;51.074;3.788;2023-05-10T07:10:00;16.70;99.90
27226;DHT22;14732;51.074;3.788;2023-05-10T07:12:26;16.80;99.90
27226;DHT22;14732;51.074;3.788;2023-05-10T07:14:52;16.90;99.90
27226;DHT22;14732;51.074;3.788;2023-05-10T07:17:17;17.00;99.90
27226;DHT22;14732;51.074;3.788;2023-05-10T07:19:43;17.10;99.90
27226;DHT22;14732;51.074;3.788;2023-05-10T07:22:09;17.10;99.90
27226;DHT22;14732;51.074;3.788;2023-05-10T07:24:35;17.00;99.90
27226;DHT22;14732;51.074;3.788;2023-05-10T07:27:00;16.90;99.90
27226;DHT22;14732;51.074;3.788;2023-05-10T07:29:26;16.80;99.90
27226;DHT22;14732;51.074;3.788;2023-05-10T07:31:52;17.00;99.90
27226;DHT22;14732;51.074;3.788;2023-05-10T07:34:18;17.00;99.90
27226;DHT22;14732;51.074;3.788;2023-05-10T07:36:44;16.90;99.90
27226;DHT22;14732;51.074;3.788;2023-05-10T07:39:09;16.80;99.90
27226;DHT22;14732;51.074;3.788;2023-05-10T07:41:35;16.70;99.90
27226;DHT22;14732;51.074;3.788;2023-05-10T07:44:03;16.70;99.90
27226;DHT22;14732;51.074;3.788;2023-05-10T07:46:29;16.90;99.90
27226;DHT22;14732;51.074;3.788;2023-05-10T07:48:55;17.10;99.90
27226;DHT22;14732;51.074;3.788;2023-05-10T07:51:20;17.20;99.90
27226;DHT22;14732;51.074;3.788;2023-05-10T07:53:46;17.20;99.90
27226;DHT22;14732;51.074;3.788;2023-05-10T07:56:24;17.10;99.90
27226;DHT22;14732;51.074;3.788;2023-05-10T07:58:51;17.00;99.90
27226;DHT22;14732;51.074;3.788;2023-05-10T08:01:16;16.90;99.90
27226;DHT22;14732;51.074;3.788;2023-05-10T08:03:42;16.90;99.90
27226;DHT22;14732;51.074;3.788;2023-05-10T08:06:08;16.80;99.90
27226;DHT22;14732;51.074;3.788;2023-05-10T08:08:33;16.70;99.90
27226;DHT22;14732;51.074;3.788;2023-05-10T08:10:59;16.70;99.90
27226;DHT22;14732;51.074;3.788;2023-05-10T08:13:25;16.80;99.90
27226;DHT22;14732;51.074;3.788;2023-05-10T08:15:50;16.90;99.90
27226;DHT22;14732;51.074;3.788;2023-05-10T08:18:18;16.80;99.90
27226;DHT22;14732;51.074;3.788;2023-05-10T08:20:44;16.90;99.90
27226;DHT22;14732;51.074;3.788;2023-05-10T08:23:11;16.90;99.90
27226;DHT22;14732;51.074;3.788;2023-05-10T08:25:37;17.00;99.90
27226;DHT22;14732;51.074;3.788;2023-05-10T08:28:03;17.00;99.90
27226;DHT22;14732;51.074;3.788;2023-05-10T08:30:29;16.90;99.90
27226;DHT22;14732;51.074;3.788;2023-05-10T08:32:54;17.00;99.90
27226;DHT22;14732;51.074;3.788;2023-05-10T08:35:20;17.20;99.90
27226;DHT22;14732;51.074;3.788;2023-05-10T08:37:45;17.30;99.90
27226;DHT22;14732;51.074;3.788;2023-05-10T08:40:12;17.40;99.90
27226;DHT22;14732;51.074;3.788;2023-05-10T08:42:40;17.50;99.90
27226;DHT22;14732;51.074;3.788;2023-05-10T08:45:10;17.30;99.90
27226;DHT22;14732;51.074;3.788;2023-05-10T08:47:37;17.30;99.90
27226;DHT22;14732;51.074;3.788;2023-05-10T08:50:04;17.20;99.90
27226;DHT22;14732;51.074;3.788;2023-05-10T08:52:30;17.40;99.90
27226;DHT22;14732;51.074;3.788;2023-05-10T08:54:58;17.20;99.90
27226;DHT22;14732;51.074;3.788;2023-05-10T08:57:24;17.00;99.90
27226;DHT22;14732;51.074;3.788;2023-05-10T08:59:50;16.70;99.90
27226;DHT22;14732;51.074;3.788;2023-05-10T09:02:16;16.50;99.90
27226;DHT22;14732;51.074;3.788;2023-05-10T09:04:43;16.30;99.90
27226;DHT22;14732;51.074;3.788;2023-05-10T09:07:10;16.20;99.90
27226;DHT22;14732;51.074;3.788;2023-05-10T09:09:36;16.30;99.90
27226;DHT22;14732;51.074;3.788;2023-05-10T09:12:02;16.40;99.90
27226;DHT22;14732;51.074;3.788;2023-05-10T09:14:29;16.70;99.90
27226;DHT22;14732;51.074;3.788;2023-05-10T09:16:56;17.00;99.90
27226;DHT22;14732;51.074;3.788;2023-05-10T09:19:21;17.10;99.90
27226;DHT22;14732;51.074;3.788;2023-05-10T09:21:49;17.10;99.90
27226;DHT22;14732;51.074;3.788;2023-05-10T09:24:15;17.00;99.90
27226;DHT22;14732;51.074;3.788;2023-05-10T09:26:46;17.00;99.90
27226;DHT22;14732;51.074;3.788;2023-05-10T09:29:15;16.80;99.90
27226;DHT22;14732;51.074;3.788;2023-05-10T09:31:48;16.60;99.90
27226;DHT22;14732;51.074;3.788;2023-05-10T09:34:23;16.10;99.90
27226;DHT22;14732;51.074;3.788;2023-05-10T09:36:57;15.80;99.90
27226;DHT22;14732;51.074;3.788;2023-05-10T09:39:34;15.80;99.90
27226;DHT22;14732;51.074;3.788;2023-05-10T09:42:03;15.80;99.90
27226;DHT22;14732;51.074;3.788;2023-05-10T09:44:29;15.90;99.90
27226;DHT22;14732;51.074;3.788;2023-05-10T09:46:55;16.40;99.90
27226;DHT22;14732;51.074;3.788;2023-05-10T09:49:22;16.60;99.90
27226;DHT22;14732;51.074;3.788;2023-05-10T09:52:08;17.10;99.90
27226;DHT22;14732;51.074;3.788;2023-05-10T09:54:34;17.90;99.90
27226;DHT22;14732;51.074;3.788;2023-05-10T09:57:00;18.50;99.90
27226;DHT22;14732;51.074;3.788;2023-05-10T09:59:27;19.00;99.90
27226;DHT22;14732;51.074;3.788;2023-05-10T10:01:56;19.30;99.90
27226;DHT22;14732;51.074;3.788;2023-05-10T10:04:22;19.60;99.90
27226;DHT22;14732;51.074;3.788;2023-05-10T10:06:58;20.00;99.90
27226;DHT22;14732;51.074;3.788;2023-05-10T10:09:25;20.30;99.90
27226;DHT22;14732;51.074;3.788;2023-05-10T10:11:51;20.30;99.90
27226;DHT22;14732;51.074;3.788;2023-05-10T10:14:18;20.30;99.90
27226;DHT22;14732;51.074;3.788;2023-05-10T10:16:44;20.20;99.90
27226;DHT22;14732;51.074;3.788;2023-05-10T10:19:10;20.10;99.90
27226;DHT22;14732;51.074;3.788;2023-05-10T10:21:36;20.00;99.90
27226;DHT22;14732;51.074;3.788;2023-05-10T10:24:02;20.00;99.90
27226;DHT22;14732;51.074;3.788;2023-05-10T10:26:30;20.00;99.90
27226;DHT22;14732;51.074;3.788;2023-05-10T10:34:38;20.80;99.90
27226;DHT22;14732;51.074;3.788;2023-05-10T10:37:06;21.10;99.90
27226;DHT22;14732;51.074;3.788;2023-05-10T10:39:32;21.20;99.90
27226;DHT22;14732;51.074;3.788;2023-05-10T10:41:58;21.20;99.90
27226;DHT22;14732;51.074;3.788;2023-05-10T10:44:25;21.00;99.90
27226;DHT22;14732;51.074;3.788;2023-05-10T10:54:59;20.20;99.90
27226;DHT22;14732;51.074;3.788;2023-05-10T10:57:26;20.10;99.90
27226;DHT22;14732;51.074;3.788;2023-05-10T10:59:58;20.00;99.90
27226;DHT22;14732;51.074;3.788;2023-05-10T11:07:59;19.60;99.90
27226;DHT22;14732;51.074;3.788;2023-05-10T11:10:26;19.60;99.90
27226;DHT22;14732;51.074;3.788;2023-05-10T11:13:12;19.50;99.90
27226;DHT22;14732;51.074;3.788;2023-05-10T11:15:38;19.50;99.90
27226;DHT22;14732;51.074;3.788;2023-05-10T11:18:17;19.20;99.90
27226;DHT22;14732;51.074;3.788;2023-05-10T11:20:44;18.90;99.90
27226;DHT22;14732;51.074;3.788;2023-05-10T11:23:15;18.80;99.90
27226;DHT22;14732;51.074;3.788;2023-05-10T11:25:45;18.70;99.90
27226;DHT22;14732;51.074;3.788;2023-05-10T11:28:12;18.50;99.90
27226;DHT22;14732;51.074;3.788;2023-05-10T11:30:41;18.40;99.90
27226;DHT22;14732;51.074;3.788;2023-05-10T11:33:09;18.30;99.90
27226;DHT22;14732;51.074;3.788;2023-05-10T11:35:39;18.10;99.90
27226;DHT22;14732;51.074;3.788;2023-05-10T11:38:09;18.10;99.90
27226;DHT22;14732;51.074;3.788;2023-05-10T11:40:36;18.20;99.90
27226;DHT22;14732;51.074;3.788;2023-05-10T11:43:03;18.00;99.90
27226;DHT22;14732;51.074;3.788;2023-05-10T11:45:32;17.90;99.90
27226;DHT22;14732;51.074;3.788;2023-05-10T11:47:59;17.90;99.90
27226;DHT22;14732;51.074;3.788;2023-05-10T11:50:25;18.00;99.90
27226;DHT22;14732;51.074;3.788;2023-05-10T11:52:57;18.20;99.90
27226;DHT22;14732;51.074;3.788;2023-05-10T11:55:24;18.30;99.90
27226;DHT22;14732;51.074;3.788;2023-05-10T11:57:54;18.50;99.90
27226;DHT22;14732;51.074;3.788;2023-05-10T12:00:20;18.60;99.90
27226;DHT22;14732;51.074;3.788;2023-05-10T12:02:46;18.80;99.90
27226;DHT22;14732;51.074;3.788;2023-05-10T12:05:12;19.00;99.90
27226;DHT22;14732;51.074;3.788;2023-05-10T12:07:38;19.00;99.90
27226;DHT22;14732;51.074;3.788;2023-05-10T12:10:11;19.20;99.90
27226;DHT22;14732;51.074;3.788;2023-05-10T12:12:45;19.30;99.90
27226;DHT22;14732;51.074;3.788;2023-05-10T12:15:23;19.60;99.90
27226;DHT22;14732;51.074;3.788;2023-05-10T12:17:50;19.90;99.90
27226;DHT22;14732;51.074;3.788;2023-05-10T12:20:20;20.00;99.90
27226;DHT22;14732;51.074;3.788;2023-05-10T12:22:47;20.00;99.90
27226;DHT22;14732;51.074;3.788;2023-05-10T12:25:14;20.10;99.90
27226;DHT22;14732;51.074;3.788;2023-05-10T12:27:40;20.30;99.90
27226;DHT22;14732;51.074;3.788;2023-05-10T12:30:07;20.20;99.90
27226;DHT22;14732;51.074;3.788;2023-05-10T12:32:43;20.10;99.90
27226;DHT22;14732;51.074;3.788;2023-05-10T12:35:09;20.00;99.90
27226;DHT22;14732;51.074;3.788;2023-05-10T12:37:35;20.00;99.90
27226;DHT22;14732;51.074;3.788;2023-05-10T12:40:08;19.90;99.90
27226;DHT22;14732;51.074;3.788;2023-05-10T12:42:35;19.80;99.90
27226;DHT22;14732;51.074;3.788;2023-05-10T12:45:01;20.00;99.90
27226;DHT22;14732;51.074;3.788;2023-05-10T12:47:28;20.10;99.90
27226;DHT22;14732;51.074;3.788;2023-05-10T12:49:53;20.30;99.90
27226;DHT22;14732;51.074;3.788;2023-05-10T12:52:19;20.20;99.90
27226;DHT22;14732;51.074;3.788;2023-05-10T12:54:45;20.10;99.90
27226;DHT22;14732;51.074;3.788;2023-05-10T12:57:11;20.00;99.90
27226;DHT22;14732;51.074;3.788;2023-05-10T12:59:36;20.00;99.90
27226;DHT22;14732;51.074;3.788;2023-05-10T13:02:02;20.00;99.90
27226;DHT22;14732;51.074;3.788;2023-05-10T13:04:28;20.10;99.90
27226;DHT22;14732;51.074;3.788;2023-05-10T13:06:53;20.10;99.90
27226;DHT22;14732;51.074;3.788;2023-05-10T13:09:21;20.10;99.90
27226;DHT22;14732;51.074;3.788;2023-05-10T13:11:47;20.30;99.90
27226;DHT22;14732;51.074;3.788;2023-05-10T13:14:13;20.30;99.90
27226;DHT22;14732;51.074;3.788;2023-05-10T13:16:39;20.20;99.90
27226;DHT22;14732;51.074;3.788;2023-05-10T13:19:05;20.30;99.90
27226;DHT22;14732;51.074;3.788;2023-05-10T13:21:31;20.10;99.90
27226;DHT22;14732;51.074;3.788;2023-05-10T13:23:56;20.00;99.90
27226;DHT22;14732;51.074;3.788;2023-05-10T13:26:22;19.90;99.90
27226;DHT22;14732;51.074;3.788;2023-05-10T13:28:47;19.90;99.90
27226;DHT22;14732;51.074;3.788;2023-05-10T13:31:14;19.80;99.90
27226;DHT22;14732;51.074;3.788;2023-05-10T13:33:39;19.80;99.90
27226;DHT22;14732;51.074;3.788;2023-05-10T13:36:06;19.60;99.90
27226;DHT22;14732;51.074;3.788;2023-05-10T13:38:32;19.50;99.90
27226;DHT22;14732;51.074;3.788;2023-05-10T13:40:57;19.50;99.90
27226;DHT22;14732;51.074;3.788;2023-05-10T13:43:24;19.50;99.90
27226;DHT22;14732;51.074;3.788;2023-05-10T13:45:49;19.40;99.90
27226;DHT22;14732;51.074;3.788;2023-05-10T13:48:15;19.50;99.90
27226;DHT22;14732;51.074;3.788;2023-05-10T13:50:41;19.30;99.90
27226;DHT22;14732;51.074;3.788;2023-05-10T13:53:07;19.20;99.90
27226;DHT22;14732;51.074;3.788;2023-05-10T13:55:32;19.10;99.90
27226;DHT22;14732;51.074;3.788;2023-05-10T13:57:58;19.10;99.90
27226;DHT22;14732;51.074;3.788;2023-05-10T14:00:24;19.20;99.90
27226;DHT22;14732;51.074;3.788;2023-05-10T14:02:50;19.20;99.90
27226;DHT22;14732;51.074;3.788;2023-05-10T14:05:15;19.00;99.90
27226;DHT22;14732;51.074;3.788;2023-05-10T14:07:41;19.10;99.90
27226;DHT22;14732;51.074;3.788;2023-05-10T14:10:07;19.20;99.90
27226;DHT22;14732;51.074;3.788;2023-05-10T14:12:33;19.20;99.90
27226;DHT22;14732;51.074;3.788;2023-05-10T14:14:58;19.10;99.90
27226;DHT22;14732;51.074;3.788;2023-05-10T14:17:24;18.90;99.90
27226;DHT22;14732;51.074;3.788;2023-05-10T14:19:49;18.80;99.90
27226;DHT22;14732;51.074;3.788;2023-05-10T14:22:15;18.80;99.90
27226;DHT22;14732;51.074;3.788;2023-05-10T14:24:41;18.90;99.90
27226;DHT22;14732;51.074;3.788;2023-05-10T14:27:06;19.00;99.90
27226;DHT22;14732;51.074;3.788;2023-05-10T14:29:32;18.90;99.90
27226;DHT22;14732;51.074;3.788;2023-05-10T14:31:58;18.90;99.90
27226;DHT22;14732;51.074;3.788;2023-05-10T14:34:23;18.80;99.90
27226;DHT22;14732;51.074;3.788;2023-05-10T14:36:49;18.70;99.90
27226;DHT22;14732;51.074;3.788;2023-05-10T14:39:15;18.70;99.90
27226;DHT22;14732;51.074;3.788;2023-05-10T14:41:41;18.70;99.90
27226;DHT22;14732;51.074;3.788;2023-05-10T14:44:08;18.70;99.90
27226;DHT22;14732;51.074;3.788;2023-05-10T14:46:35;18.80;99.90
27226;DHT22;14732;51.074;3.788;2023-05-10T14:49:01;18.90;99.90
27226;DHT22;14732;51.074;3.788;2023-05-10T14:51:26;18.80;99.90
27226;DHT22;14732;51.074;3.788;2023-05-10T14:53:52;18.70;99.90
27226;DHT22;14732;51.074;3.788;2023-05-10T14:56:17;18.50;99.90
27226;DHT22;14732;51.074;3.788;2023-05-10T14:58:43;18.60;99.90
27226;DHT22;14732;51.074;3.788;2023-05-10T15:01:09;18.50;99.90
27226;DHT22;14732;51.074;3.788;2023-05-10T15:03:35;18.40;99.90
27226;DHT22;14732;51.074;3.788;2023-05-10T15:06:00;18.40;99.90
27226;DHT22;14732;51.074;3.788;2023-05-10T15:08:26;18.30;99.90
27226;DHT22;14732;51.074;3.788;2023-05-10T15:10:52;18.20;99.90
27226;DHT22;14732;51.074;3.788;2023-05-10T15:13:18;18.30;99.90
27226;DHT22;14732;51.074;3.788;2023-05-10T15:15:43;18.40;99.90
27226;DHT22;14732;51.074;3.788;2023-05-10T15:18:09;18.40;99.90
27226;DHT22;14732;51.074;3.788;2023-05-10T15:20:35;18.50;99.90
27226;DHT22;14732;51.074;3.788;2023-05-10T15:23:01;18.50;99.90
27226;DHT22;14732;51.074;3.788;2023-05-10T15:25:26;18.40;99.90
27226;DHT22;14732;51.074;3.788;2023-05-10T15:27:54;18.50;99.90
27226;DHT22;14732;51.074;3.788;2023-05-10T15:30:19;18.60;99.90
27226;DHT22;14732;51.074;3.788;2023-05-10T15:32:45;18.40;99.90
27226;DHT22;14732;51.074;3.788;2023-05-10T15:35:11;18.40;99.90
27226;DHT22;14732;51.074;3.788;2023-05-10T15:37:37;18.50;99.90
27226;DHT22;14732;51.074;3.788;2023-05-10T15:40:03;18.50;99.90
27226;DHT22;14732;51.074;3.788;2023-05-10T15:42:30;18.40;99.90
27226;DHT22;14732;51.074;3.788;2023-05-10T15:44:56;18.30;99.90
27226;DHT22;14732;51.074;3.788;2023-05-10T15:47:21;18.30;99.90
27226;DHT22;14732;51.074;3.788;2023-05-10T15:49:47;18.40;99.90
27226;DHT22;14732;51.074;3.788;2023-05-10T15:52:13;18.40;99.90
27226;DHT22;14732;51.074;3.788;2023-05-10T15:54:38;18.50;99.90
27226;DHT22;14732;51.074;3.788;2023-05-10T15:57:04;18.50;99.90
27226;DHT22;14732;51.074;3.788;2023-05-10T15:59:30;18.60;99.90
27226;DHT22;14732;51.074;3.788;2023-05-10T16:01:56;18.60;99.90